createdAt,value
2017-10-20T00:00:39.640Z,12.03
2017-10-20T00:03:07.145Z,13.93
2017-10-20T00:05:34.606Z,11.60
2017-10-20T00:08:02.101Z,13.73
2017-10-20T00:10:29.658Z,14.77
2017-10-20T00:12:57.110Z,14.20
2017-10-20T00:15:24.582Z,13.20
2017-10-20T00:17:52.025Z,12.37
2017-10-20T00:20:19.482Z,12.93
2017-10-20T00:22:46.946Z,13.20
2017-10-20T00:25:15.917Z,12.53
2017-10-20T00:27:43.371Z,12.57
2017-10-20T00:30:10.843Z,14.20
2017-10-20T00:32:38.294Z,14.73
2017-10-20T00:35:05.758Z,14.27
2017-10-20T00:37:33.205Z,15.33
2017-10-20T00:40:00.681Z,15.50
2017-10-20T00:42:28.147Z,16.73
2017-10-20T00:44:55.602Z,13.57
2017-10-20T00:47:23.063Z,15.23
2017-10-20T00:49:51.306Z,14.73
2017-10-20T00:52:18.763Z,14.63
2017-10-20T00:54:46.334Z,15.23
2017-10-20T00:57:13.795Z,15.00
2017-10-20T00:59:41.261Z,15.93
2017-10-20T01:02:08.714Z,13.80
2017-10-20T01:04:36.183Z,14.97
2017-10-20T01:07:04.438Z,15.80
2017-10-20T01:09:31.915Z,15.40
2017-10-20T01:12:00.167Z,16.00
2017-10-20T01:14:27.631Z,14.53
2017-10-20T01:16:55.092Z,15.30
2017-10-20T01:19:23.322Z,14.57
2017-10-20T01:21:50.806Z,15.17
2017-10-20T01:24:18.265Z,16.00
2017-10-20T01:26:45.836Z,15.43
2017-10-20T01:29:13.382Z,13.27
2017-10-20T01:31:40.852Z,14.83
2017-10-20T01:34:08.306Z,13.90
2017-10-20T01:36:35.777Z,14.70
2017-10-20T01:39:03.225Z,13.77
2017-10-20T01:41:30.702Z,12.87
2017-10-20T01:43:58.942Z,13.40
2017-10-20T01:46:26.406Z,12.90
2017-10-20T01:48:53.954Z,15.33
2017-10-20T01:51:21.509Z,15.67
2017-10-20T01:53:48.974Z,14.87
2017-10-20T01:56:16.450Z,15.70
2017-10-20T01:58:43.988Z,15.57
2017-10-20T02:01:11.446Z,15.50
2017-10-20T02:03:39.005Z,14.17
2017-10-20T02:06:06.478Z,14.00
2017-10-20T02:08:33.937Z,14.73
2017-10-20T02:11:01.403Z,13.30
2017-10-20T02:13:29.646Z,14.13
2017-10-20T02:15:57.106Z,14.33
2017-10-20T02:18:24.569Z,13.70
2017-10-20T02:20:52.030Z,13.87
2017-10-20T02:23:19.501Z,14.13
2017-10-20T02:25:47.724Z,12.70
2017-10-20T02:28:15.202Z,14.60
2017-10-20T02:30:42.776Z,14.57
2017-10-20T02:33:10.242Z,14.70
2017-10-20T02:35:37.786Z,14.83
2017-10-20T02:38:05.246Z,15.20
2017-10-20T02:40:32.702Z,14.50
2017-10-20T02:43:00.186Z,13.60
2017-10-20T02:45:28.410Z,15.30
2017-10-20T02:47:55.867Z,15.90
2017-10-20T02:50:23.336Z,15.60
2017-10-20T02:52:50.793Z,15.07
2017-10-20T02:55:18.354Z,14.50
2017-10-20T02:57:45.828Z,15.73
2017-10-20T03:00:13.305Z,15.57
2017-10-20T03:02:41.525Z,16.60
2017-10-20T03:05:08.995Z,15.97
2017-10-20T03:07:36.445Z,16.10
2017-10-20T03:10:03.995Z,15.90
2017-10-20T03:12:31.449Z,13.90
2017-10-20T03:14:58.922Z,15.13
2017-10-20T03:17:26.384Z,12.90
2017-10-20T03:19:53.844Z,14.40
2017-10-20T03:22:21.306Z,16.60
2017-10-20T03:24:48.787Z,18.40
2017-10-20T03:27:17.002Z,14.53
2017-10-20T03:29:44.478Z,14.40
2017-10-20T03:32:12.041Z,14.50
2017-10-20T03:34:39.607Z,14.17
2017-10-20T03:37:07.073Z,14.33
2017-10-20T03:39:34.625Z,14.57
2017-10-20T03:42:02.077Z,14.07
2017-10-20T03:44:29.548Z,15.80
2017-10-20T03:46:57.010Z,15.27
2017-10-20T03:49:24.470Z,14.50
2017-10-20T03:51:52.710Z,14.07
2017-10-20T03:54:20.161Z,14.40
2017-10-20T03:56:47.647Z,15.07
2017-10-20T03:59:15.128Z,13.90
2017-10-20T04:01:42.579Z,17.10
2017-10-20T04:04:10.811Z,16.00
2017-10-20T04:06:38.269Z,14.13
2017-10-20T04:09:05.731Z,16.60
2017-10-20T04:11:33.203Z,16.53
2017-10-20T04:14:00.655Z,14.67
2017-10-20T04:16:28.130Z,14.43
2017-10-20T04:18:55.665Z,14.93
2017-10-20T04:21:23.135Z,18.60
2017-10-20T04:23:50.594Z,14.63
2017-10-20T04:26:18.058Z,13.33
2017-10-20T04:28:46.078Z,15.53
2017-10-20T04:31:13.562Z,16.17
2017-10-20T04:33:41.017Z,14.00
2017-10-20T04:36:08.474Z,16.17
2017-10-20T04:38:35.942Z,15.23
2017-10-20T04:41:03.493Z,12.70
2017-10-20T04:43:30.962Z,13.60
2017-10-20T04:45:58.423Z,14.07
2017-10-20T04:50:48.803Z,15.07
2017-10-20T04:53:16.273Z,14.97
2017-10-20T04:55:43.750Z,16.23
2017-10-20T04:58:11.204Z,17.07
2017-10-20T05:00:38.666Z,16.80
2017-10-20T05:03:06.905Z,19.53
2017-10-20T05:05:34.364Z,15.23
2017-10-20T05:08:01.939Z,13.20
2017-10-20T05:10:29.395Z,13.50
2017-10-20T05:12:56.891Z,16.67
2017-10-20T05:15:24.321Z,16.20
2017-10-20T05:17:51.794Z,14.67
2017-10-20T05:20:20.023Z,15.23
2017-10-20T05:22:47.596Z,14.97
2017-10-20T05:25:15.050Z,14.90
2017-10-20T05:27:42.523Z,16.00
2017-10-20T05:30:09.978Z,16.50
2017-10-20T05:32:37.446Z,14.07
2017-10-20T05:35:04.900Z,15.77
2017-10-20T05:37:32.360Z,15.37
2017-10-20T05:40:00.606Z,17.70
2017-10-20T05:42:28.074Z,15.27
2017-10-20T05:44:55.539Z,15.63
2017-10-20T05:47:23.000Z,15.97
2017-10-20T05:49:50.464Z,15.93
2017-10-20T05:52:18.704Z,15.40
2017-10-20T05:54:46.171Z,15.87
2017-10-20T05:57:13.637Z,16.63
2017-10-20T05:59:41.115Z,16.57
2017-10-20T06:02:09.333Z,15.90
2017-10-20T06:04:36.911Z,17.67
2017-10-20T06:07:04.373Z,16.20
2017-10-20T06:09:31.829Z,16.63
2017-10-20T06:11:59.292Z,14.93
2017-10-20T06:14:26.753Z,14.07
2017-10-20T06:16:54.202Z,14.63
2017-10-20T06:19:21.762Z,15.77
2017-10-20T06:21:49.213Z,16.47
2017-10-20T06:24:16.683Z,17.67
2017-10-20T06:26:44.135Z,16.13
2017-10-20T06:29:11.605Z,16.30
2017-10-20T06:31:39.062Z,15.37
2017-10-20T06:34:06.528Z,15.90
2017-10-20T06:36:34.750Z,14.97
2017-10-20T06:39:02.218Z,17.50
2017-10-20T06:41:29.678Z,16.30
2017-10-20T06:43:57.138Z,17.10
2017-10-20T06:46:24.696Z,14.30
2017-10-20T06:48:52.153Z,14.17
2017-10-20T06:51:19.618Z,12.97
2017-10-20T06:53:47.077Z,14.23
2017-10-20T06:56:14.546Z,13.80
2017-10-20T06:58:42.002Z,16.20
2017-10-20T07:01:09.457Z,15.53
2017-10-20T07:03:37.010Z,15.80
2017-10-20T07:06:04.557Z,14.50
2017-10-20T07:08:32.118Z,13.50
2017-10-20T07:10:59.585Z,13.90
2017-10-20T07:13:27.042Z,15.87
2017-10-20T07:15:54.513Z,13.90
2017-10-20T07:18:33.649Z,12.40
2017-10-20T07:21:01.888Z,13.67
2017-10-20T07:23:29.461Z,13.73
2017-10-20T07:25:56.918Z,14.17
2017-10-20T07:28:24.369Z,12.60
2017-10-20T07:30:51.925Z,14.53
2017-10-20T07:33:19.375Z,13.40
2017-10-20T07:35:46.850Z,15.27
2017-10-20T07:38:14.305Z,16.00
2017-10-20T07:40:41.763Z,15.03
2017-10-20T07:43:09.225Z,17.13
2017-10-20T07:45:37.454Z,17.70
2017-10-20T07:48:04.927Z,14.20
2017-10-20T07:50:32.397Z,15.40
2017-10-20T07:52:59.865Z,15.30
2017-10-20T07:55:27.323Z,15.23
2017-10-20T08:00:28.781Z,14.10
2017-10-20T08:02:56.251Z,13.63
2017-10-20T08:05:23.705Z,15.80
2017-10-20T08:07:51.198Z,12.80
2017-10-20T08:10:18.677Z,13.30
2017-10-20T08:12:46.133Z,13.43
2017-10-20T08:15:13.596Z,14.77
2017-10-20T08:17:41.071Z,17.60
2017-10-20T08:20:08.537Z,16.27
2017-10-20T08:22:36.013Z,16.13
2017-10-20T08:25:03.569Z,16.47
2017-10-20T08:27:31.021Z,15.90
2017-10-20T08:29:59.251Z,16.67
2017-10-20T08:32:26.713Z,17.33
2017-10-20T08:34:54.189Z,15.67
2017-10-20T08:37:21.649Z,17.20
2017-10-20T08:39:49.126Z,15.60
2017-10-20T08:42:16.586Z,15.90
2017-10-20T08:44:44.054Z,12.90
2017-10-20T08:47:12.281Z,14.13
2017-10-20T08:49:39.753Z,14.03
2017-10-20T08:52:07.210Z,15.13
2017-10-20T08:54:34.673Z,14.37
2017-10-20T08:57:02.251Z,14.50
2017-10-20T08:59:30.498Z,15.37
2017-10-20T09:01:57.954Z,13.80
2017-10-20T09:04:25.425Z,15.30
2017-10-20T09:06:52.888Z,15.57
2017-10-20T09:09:20.423Z,16.47
2017-10-20T09:11:47.886Z,17.70
2017-10-20T09:14:15.379Z,15.67
2017-10-20T09:16:43.597Z,15.57
2017-10-20T09:19:11.058Z,17.90
2017-10-20T09:21:38.529Z,14.57
2017-10-20T09:24:05.990Z,13.57
2017-10-20T09:26:33.465Z,15.87
2017-10-20T09:29:00.927Z,13.80
2017-10-20T09:31:28.381Z,14.53
2017-10-20T09:33:56.606Z,14.10
2017-10-20T09:36:24.078Z,13.83
2017-10-20T09:38:51.558Z,12.37
2017-10-20T09:41:19.021Z,14.33
2017-10-20T09:43:46.481Z,14.13
2017-10-20T09:46:13.957Z,13.50
2017-10-20T09:48:42.178Z,12.30
2017-10-20T09:51:09.648Z,13.17
2017-10-20T09:53:37.106Z,13.43
2017-10-20T09:56:04.575Z,14.20
2017-10-20T09:58:32.037Z,10.30
2017-10-20T10:00:59.498Z,11.13
2017-10-20T10:03:27.727Z,12.63
2017-10-20T10:05:55.188Z,10.47
2017-10-20T10:08:22.642Z,9.93
2017-10-20T10:10:50.111Z,11.37
2017-10-20T10:13:17.572Z,11.17
2017-10-20T10:15:45.050Z,10.80
2017-10-20T10:18:12.506Z,9.33
2017-10-20T10:20:40.765Z,8.23
2017-10-20T10:23:08.233Z,10.13
2017-10-20T10:25:35.689Z,9.23
2017-10-20T10:28:03.156Z,9.83
2017-10-20T10:30:30.599Z,8.93
2017-10-20T10:32:58.058Z,9.63
2017-10-20T10:35:25.509Z,7.90
2017-10-20T10:37:52.980Z,8.10
2017-10-20T10:40:20.434Z,6.90
2017-10-20T10:42:47.974Z,7.63
2017-10-20T10:45:15.433Z,6.10
2017-10-20T10:47:42.894Z,6.87
2017-10-20T10:50:10.355Z,6.90
2017-10-20T10:52:37.823Z,6.70
2017-10-20T10:55:06.046Z,7.23
2017-10-20T10:57:33.514Z,6.03
2017-10-20T11:00:00.963Z,6.57
2017-10-20T11:02:28.426Z,6.70
2017-10-20T11:04:55.878Z,6.50
2017-10-20T11:07:34.992Z,6.17
2017-10-20T11:10:14.576Z,6.47
2017-10-20T11:12:42.759Z,6.70
2017-10-20T11:15:10.219Z,7.57
2017-10-20T11:17:37.677Z,6.60
2017-10-20T11:20:05.138Z,7.17
2017-10-20T11:22:32.597Z,5.97
2017-10-20T11:25:00.826Z,7.53
2017-10-20T11:27:28.292Z,6.57
2017-10-20T11:29:55.750Z,6.27
2017-10-20T11:32:23.235Z,6.07
2017-10-20T11:34:50.685Z,6.37
2017-10-20T11:37:18.145Z,8.60
2017-10-20T11:39:45.609Z,6.30
2017-10-20T11:42:14.573Z,4.83
2017-10-20T11:44:42.040Z,6.83
2017-10-20T11:47:09.501Z,5.33
2017-10-20T11:49:36.972Z,5.43
2017-10-20T11:52:04.426Z,6.50
2017-10-20T11:54:31.894Z,5.80
2017-10-20T11:57:00.152Z,6.50
2017-10-20T11:59:27.610Z,6.97
2017-10-20T12:01:55.071Z,6.60
2017-10-20T12:04:22.538Z,6.37
2017-10-20T12:06:50.753Z,7.30
2017-10-20T12:09:18.218Z,6.03
2017-10-20T12:11:45.670Z,6.37
2017-10-20T12:14:13.129Z,6.73
2017-10-20T12:16:40.593Z,7.03
2017-10-20T12:19:08.050Z,5.90
2017-10-20T12:21:35.513Z,5.20
2017-10-20T12:24:02.978Z,4.70
2017-10-20T12:26:30.421Z,2.30
2017-10-20T12:28:58.009Z,2.40
2017-10-20T12:31:25.554Z,2.80
2017-10-20T12:33:53.020Z,2.20
2017-10-20T12:36:20.473Z,2.20
2017-10-20T12:38:47.939Z,2.20
2017-10-20T12:41:15.487Z,2.33
2017-10-20T12:43:43.049Z,2.60
2017-10-20T12:46:10.511Z,2.17
2017-10-20T12:48:37.963Z,1.90
2017-10-20T12:51:06.182Z,2.53
2017-10-20T12:53:33.634Z,2.30
2017-10-20T12:56:01.094Z,2.10
2017-10-20T12:58:28.545Z,2.57
2017-10-20T13:00:56.765Z,2.30
2017-10-20T13:03:24.218Z,2.80
2017-10-20T13:05:51.806Z,2.10
2017-10-20T13:08:19.260Z,2.17
2017-10-20T13:10:46.731Z,1.80
2017-10-20T13:13:14.190Z,2.33
2017-10-20T13:15:41.640Z,2.47
2017-10-20T13:18:09.178Z,2.00
2017-10-20T13:20:36.637Z,2.20
2017-10-20T13:23:04.099Z,2.03
2017-10-20T13:25:31.558Z,1.70
2017-10-20T13:27:59.122Z,1.60
2017-10-20T13:30:26.577Z,1.63
2017-10-20T13:32:54.810Z,1.93
2017-10-20T13:35:22.275Z,1.83
2017-10-20T13:37:49.723Z,1.80
2017-10-20T13:40:17.205Z,2.07
2017-10-20T13:42:44.678Z,2.23
2017-10-20T13:45:12.129Z,2.27
2017-10-20T13:47:39.585Z,3.03
2017-10-20T13:50:07.074Z,2.40
2017-10-20T13:52:35.302Z,2.50
2017-10-20T13:55:02.750Z,2.10
2017-10-20T13:57:30.317Z,2.20
2017-10-20T13:59:57.878Z,2.33
2017-10-20T14:02:25.338Z,2.30
2017-10-20T14:04:52.792Z,2.33
2017-10-20T14:07:20.249Z,2.30
2017-10-20T14:09:47.809Z,3.80
2017-10-20T14:12:15.266Z,3.80
2017-10-20T14:14:42.727Z,3.50
2017-10-20T14:17:10.189Z,4.33
2017-10-20T14:19:38.409Z,4.20
2017-10-20T14:22:05.887Z,4.57
2017-10-20T14:24:33.369Z,3.57
2017-10-20T14:27:00.829Z,5.03
2017-10-20T14:29:28.293Z,4.60
2017-10-20T14:31:55.755Z,4.80
2017-10-20T14:34:23.202Z,3.40
2017-10-20T14:36:50.657Z,4.40
2017-10-20T14:39:18.105Z,3.00
2017-10-20T14:41:45.584Z,2.90
2017-10-20T14:44:13.034Z,2.90
2017-10-20T14:46:40.481Z,2.93
2017-10-20T14:49:07.946Z,2.83
2017-10-20T14:51:35.402Z,2.50
2017-10-20T14:54:02.977Z,2.43
2017-10-20T14:56:30.518Z,2.50
2017-10-20T14:58:57.986Z,2.30
2017-10-20T15:01:25.429Z,3.40
2017-10-20T15:03:52.908Z,3.00
2017-10-20T15:06:20.341Z,2.70
2017-10-20T15:08:47.802Z,2.30
2017-10-20T15:11:15.248Z,2.50
2017-10-20T15:13:42.701Z,2.00
2017-10-20T15:16:10.162Z,1.77
2017-10-20T15:18:37.617Z,2.27
2017-10-20T15:21:05.173Z,1.90
2017-10-20T15:23:32.641Z,1.90
2017-10-20T15:26:00.858Z,2.17
2017-10-20T15:28:28.314Z,1.90
2017-10-20T15:30:55.766Z,2.07
2017-10-20T15:33:23.226Z,2.17
2017-10-20T15:35:50.743Z,2.27
2017-10-20T15:38:18.210Z,2.47
2017-10-20T15:40:45.763Z,3.03
2017-10-20T15:43:13.217Z,3.30
2017-10-20T15:45:40.669Z,2.27
2017-10-20T15:48:08.137Z,2.40
2017-10-20T15:50:35.682Z,2.50
2017-10-20T15:53:03.142Z,2.50
2017-10-20T15:55:30.597Z,2.10
2017-10-20T15:57:58.059Z,2.60
2017-10-20T16:00:25.518Z,2.37
2017-10-20T16:02:52.971Z,2.40
2017-10-20T16:05:20.443Z,2.30
2017-10-20T16:07:48.670Z,2.50
2017-10-20T16:10:16.221Z,2.57
2017-10-20T16:12:43.677Z,2.40
2017-10-20T16:15:11.177Z,2.23
2017-10-20T16:17:38.637Z,2.23
2017-10-20T16:20:06.102Z,2.03
2017-10-20T16:22:33.554Z,2.60
2017-10-20T16:25:01.032Z,2.70
2017-10-20T16:27:29.259Z,2.73
2017-10-20T16:29:56.718Z,3.00
2017-10-20T16:32:24.170Z,3.03
2017-10-20T16:34:51.630Z,2.70
2017-10-20T16:37:19.079Z,3.03
2017-10-20T16:39:46.541Z,3.10
2017-10-20T16:42:14.000Z,4.90
2017-10-20T16:44:41.450Z,4.10
2017-10-20T16:47:08.901Z,3.53
2017-10-20T16:49:36.387Z,3.50
2017-10-20T16:52:03.861Z,3.43
2017-10-20T16:54:31.297Z,2.97
2017-10-20T16:56:59.529Z,5.20
2017-10-20T16:59:26.978Z,3.03
2017-10-20T17:01:54.482Z,4.30
2017-10-20T17:04:21.930Z,3.07
2017-10-20T17:06:49.386Z,3.10
2017-10-20T17:09:16.837Z,3.07
2017-10-20T17:11:44.289Z,4.03
2017-10-20T17:14:11.750Z,4.10
2017-10-20T17:16:39.323Z,3.30
2017-10-20T17:19:06.778Z,2.60
2017-10-20T17:21:34.237Z,3.03
2017-10-20T17:24:01.689Z,3.03
2017-10-20T17:26:29.166Z,3.70
2017-10-20T17:28:56.615Z,2.67
2017-10-20T17:31:24.071Z,2.80
2017-10-20T17:33:51.726Z,3.77
2017-10-20T17:36:19.173Z,3.13
2017-10-20T17:38:46.726Z,2.60
2017-10-20T17:41:14.178Z,3.07
2017-10-20T17:43:41.645Z,4.47
2017-10-20T17:46:09.107Z,3.50
2017-10-20T17:48:36.561Z,4.10
2017-10-20T17:51:04.017Z,3.10
2017-10-20T17:53:31.471Z,3.50
2017-10-20T17:55:58.928Z,2.97
2017-10-20T17:58:26.394Z,3.63
2017-10-20T18:00:53.846Z,2.53
2017-10-20T18:03:21.314Z,3.33
2017-10-20T18:05:48.765Z,3.10
2017-10-20T18:08:16.329Z,3.97
2017-10-20T18:10:43.787Z,3.47
2017-10-20T18:13:11.289Z,3.60
2017-10-20T18:15:38.743Z,4.97
2017-10-20T18:18:06.207Z,4.30
2017-10-20T18:20:33.642Z,3.97
2017-10-20T18:23:01.987Z,3.97
2017-10-20T18:25:29.434Z,3.50
2017-10-20T18:27:56.900Z,3.63
2017-10-20T18:30:24.358Z,3.90
2017-10-20T18:32:51.810Z,3.20
2017-10-20T18:35:19.373Z,3.10
2017-10-20T18:37:46.921Z,3.50
2017-10-20T18:40:14.395Z,4.60
2017-10-20T18:42:41.842Z,4.70
2017-10-20T18:45:09.402Z,4.33
2017-10-20T18:47:36.869Z,4.73
2017-10-20T18:50:04.423Z,4.30
2017-10-20T18:52:31.878Z,4.80
2017-10-20T18:54:59.338Z,5.40
2017-10-20T18:57:26.895Z,7.60
2017-10-20T18:59:54.368Z,8.73
2017-10-20T19:02:21.818Z,6.37
2017-10-20T19:04:49.280Z,7.00
2017-10-20T19:07:16.741Z,5.40
2017-10-20T19:09:44.966Z,4.30
2017-10-20T19:12:12.430Z,4.93
2017-10-20T19:14:39.887Z,4.70
2017-10-20T19:17:07.370Z,5.70
2017-10-20T19:19:34.921Z,5.50
2017-10-20T19:22:02.387Z,4.10
2017-10-20T19:24:29.862Z,4.57
2017-10-20T19:26:58.085Z,4.10
2017-10-20T19:29:25.551Z,4.50
2017-10-20T19:31:52.998Z,4.70
2017-10-20T19:34:20.488Z,4.97
2017-10-20T19:36:48.032Z,4.10
2017-10-20T19:39:15.489Z,5.43
2017-10-20T19:41:42.929Z,5.40
2017-10-20T19:44:10.422Z,5.63
2017-10-20T19:46:39.394Z,6.17
2017-10-20T19:49:06.852Z,5.00
2017-10-20T19:51:34.429Z,5.47
2017-10-20T19:54:01.870Z,4.13
2017-10-20T19:56:29.323Z,4.83
2017-10-20T19:58:56.773Z,3.63
2017-10-20T20:01:24.334Z,5.00
2017-10-20T20:03:51.898Z,5.00
2017-10-20T20:06:19.453Z,5.40
2017-10-20T20:08:46.914Z,5.17
2017-10-20T20:11:14.382Z,5.30
2017-10-20T20:13:41.826Z,5.77
2017-10-20T20:16:09.299Z,5.73
2017-10-20T20:18:36.741Z,6.17
2017-10-20T20:21:04.205Z,6.00
2017-10-20T20:23:31.649Z,6.70
2017-10-20T20:25:59.114Z,5.70
2017-10-20T20:28:26.554Z,5.30
2017-10-20T20:30:54.018Z,6.00
2017-10-20T20:33:21.475Z,6.53
2017-10-20T20:35:48.917Z,6.13
2017-10-20T20:38:16.365Z,6.00
2017-10-20T20:40:43.843Z,5.70
2017-10-20T20:43:11.271Z,5.63
2017-10-20T20:45:38.722Z,5.60
2017-10-20T20:48:06.218Z,6.27
2017-10-20T20:50:33.671Z,7.60
2017-10-20T20:53:01.137Z,7.60
2017-10-20T20:55:28.589Z,8.60
2017-10-20T20:57:56.131Z,6.70
2017-10-20T21:00:23.574Z,6.40
2017-10-20T21:02:51.040Z,7.83
2017-10-20T21:05:18.507Z,8.13
2017-10-20T21:07:45.967Z,5.33
2017-10-20T21:10:13.420Z,5.27
2017-10-20T21:12:40.989Z,4.40
2017-10-20T21:15:08.437Z,5.87
2017-10-20T21:17:35.899Z,6.00
2017-10-20T21:20:03.347Z,5.70
2017-10-20T21:22:30.810Z,5.17
2017-10-20T21:24:58.263Z,5.90
2017-10-20T21:27:25.726Z,6.20
2017-10-20T21:29:53.184Z,7.63
2017-10-20T21:32:20.637Z,8.20
2017-10-20T21:34:48.203Z,7.63
2017-10-20T21:37:15.656Z,8.03
2017-10-20T21:39:43.127Z,7.90
2017-10-20T21:42:10.588Z,7.30
2017-10-20T21:44:38.042Z,7.00
2017-10-20T21:47:05.503Z,7.43
2017-10-20T21:49:33.047Z,9.13
2017-10-20T21:52:00.496Z,8.80
2017-10-20T21:54:28.043Z,7.33
2017-10-20T21:56:55.496Z,7.47
2017-10-20T22:02:36.299Z,8.17
2017-10-20T22:05:03.775Z,9.20
2017-10-20T22:07:31.227Z,8.33
2017-10-20T22:09:58.681Z,7.70
2017-10-20T22:12:26.140Z,7.07
2017-10-20T22:14:53.610Z,8.50
2017-10-20T22:17:21.864Z,8.17
2017-10-20T22:19:49.426Z,6.67
2017-10-20T22:22:16.879Z,7.77
2017-10-20T22:24:44.451Z,7.70
2017-10-20T22:27:11.906Z,9.23
2017-10-20T22:29:39.382Z,7.80
2017-10-20T22:32:06.841Z,8.50
2017-10-20T22:34:35.078Z,9.60
2017-10-20T22:37:02.537Z,9.53
2017-10-20T22:39:30.003Z,9.50
2017-10-20T22:41:57.463Z,9.50
2017-10-20T22:44:25.019Z,8.73
2017-10-20T22:46:52.481Z,9.13
2017-10-20T22:49:19.934Z,7.67
2017-10-20T22:51:47.393Z,7.20
2017-10-20T22:54:14.848Z,8.23
2017-10-20T22:56:42.304Z,8.03
2017-10-20T22:59:09.756Z,8.27
2017-10-20T23:01:37.223Z,8.23
2017-10-20T23:04:04.662Z,7.33
2017-10-20T23:06:32.138Z,8.27
2017-10-20T23:08:59.582Z,7.03
2017-10-20T23:11:27.042Z,8.10
2017-10-20T23:13:54.496Z,7.27
2017-10-20T23:16:21.945Z,8.23
2017-10-20T23:18:49.401Z,8.60
2017-10-20T23:21:16.858Z,8.13
2017-10-20T23:23:44.386Z,7.80
2017-10-20T23:26:11.875Z,7.73
2017-10-20T23:28:39.344Z,8.60
2017-10-20T23:31:06.798Z,8.80
2017-10-20T23:33:34.254Z,8.77
2017-10-20T23:36:01.723Z,8.67
2017-10-20T23:38:29.179Z,8.07
2017-10-20T23:40:56.653Z,8.10
2017-10-20T23:43:24.873Z,8.10
2017-10-20T23:45:52.323Z,8.10
2017-10-20T23:48:19.802Z,8.73
2017-10-20T23:50:47.250Z,10.30
2017-10-20T23:53:14.705Z,9.40
2017-10-20T23:55:42.166Z,9.53
2017-10-20T23:58:09.734Z,9.67
